Aérodrome :
LOGIN :

S'inscrire | Disclaimer

   EN    FR    IT 

 










Légende :    VFR   VFR Marginal   IFR   IFR Intensif   IFR Très Intensif
Visi : 
Plafond : 
>= 8 km
>= 3000ft
5 à 8 km
1000 à 3000 ft
1500m à 5 km
500 à 1000 ft
800 à 1500m
200 à 500 ft
< 800m
< 200 ft
Symboles :   Orages  Brouillard  Fortes neiges  Fortes précipitations  Vent > 20 kt
SIGMETs :   Divers  Orages  Givrage  Turbulence  Onde Orograph.  Cendres Volcan.






- Altitude de l'aérodrome : 124 ft
- Code IATA : NHT


EGWU - RAF Northolt

DERNIER METAR :
  • 172150Z 26014KT 9999 FEW035 06/01 Q1016 NOSIG RMK BLU BLU

METARs EXPIRÉS :
  • 172120Z 26012KT 9999 FEW028 06/01 Q1016 NOSIG RMK BLU BLU
  • 172050Z 26014KT 9999 FEW025 07/02 Q1015 NOSIG RMK BLU BLU
  • 172020Z 26017KT 9999 FEW027 07/02 Q1015 NOSIG RMK BLU BLU
  • 171950Z 26016KT 9999 FEW027 07/03 Q1014 NOSIG RMK BLU BLU
  • 171920Z 26016KT 9999 FEW028 BKN110 08/03 Q1014 NOSIG RMK BLU BLU

TAF TAF EGWU
Valide du 17 à 21h jusqu'au 18 à 15h UTC


171931Z 1721/1815 25013KT 9999 FEW030
PROB30
TEMPO 1804/1809 SCT014
TEMPO 1810/1815 25016G26KT
PROB30
TEMPO 1811/1815 7000 SHRA SCT020



MET'MAP, la Météo Aéronautique d'un coup d'oeil ! - Copyright ORBIFLY Décembre 2007 - Disclaimer

ORBIFLY MET'MAP TEAM :

Programmation & Développement : Alexandra Zaïnal
Sur une idée originale de : Baudouin d'Aumeries
Assistance à la programmation : Marc-Olivier Méhu
Soutien technique & logistique : Manuel Goepfert

Contact : metmap@orbifly.com




SOURCES & CREDITS :

   NOAA